NEW MELONES RESERVOIR (NML)

Elevation: 1135' · STANISLAUS R basin · Operator: US Bureau of Reclamation

Provisional data, subject to change.
Query executed Monday at 3:56:30   clock

Select a sensor type for a plot of data.
Note: Reservoir Flows are daily averages.

Earlier

Date RES ELE    STORAGE    RES CHG    TOC STO    ABV TOC    OUTFLOW    INFLOW    EVAP    FNF    RIV REL    PPT INC    SPILL    DIS PWR   
 FEET   AF   AF   AF   AF   CFS   CFS   CFS   CFS   CFS   INCHES   CFS   CFS  
10/25/2014 862.03 520918 -1537 2028696 -1507778 1070 326 31 324 0 0.00 0 1070
10/26/2014 861.74 519532 -1386 2018913 -1499381 873 179 5 173 0 0.44 0 873
10/27/2014 861.18 516856 -2676 2009130 -1492274 1606 272 15 262 0 0.00 0 1606
10/28/2014 860.80 515046 -1810 1999348 -1484302 1117 224 20 220 0 0.00 0 1117
10/29/2014 860.57 513954 -1092 1989565 -1475611 848 317 20 306 0 0.00 0 848
10/30/2014 860.60 514096 142 1979782 -1465686 231 325 22 315 0 0.00 0 231
10/31/2014 860.44 513336 -760 1970000 -1456664 799 451 35 483 0 0.00 0 799
11/01/2014 860.30 512671 -665 1970000 -1457329 732 408 11 450 0 1.42 0 732
11/02/2014 860.08 511626 -1045 1970000 -1458374 701 189 15 205 0 0.00 0 701
11/03/2014 859.86 510585 -1041 1970000 -1459415 685 174 14 174 0 0.00 0 685
11/04/2014 859.52 508978 -1607 1970000 -1461022 1049 256 17 248 0 0.00 0 1049
11/05/2014 859.14 507183 -1795 1970000 -1462817 1090 199 14 181 0 0.00 0 1090
11/06/2014 858.78 505489 -1694 1970000 -1464511 1083 246 17 233 0 0.00 0 1083
11/07/2014 858.64 504831 -658 1970000 -1465169 512 197 17 163 0 0.00 0 512
11/08/2014 858.46 503986 -845 1970000 -1466014 639 225 12 230 0 0.00 0 639
11/09/2014 858.42 503798 -188 1970000 -1466202 248 182 29 174 0 0.00 0 248
11/10/2014 858.25 502999 -799 1970000 -1467001 587 208 24 199 0 0.00 0 587
11/11/2014 858.18 502670 -329 1970000 -1467330 413 261 14 236 0 0.00 0 413
11/12/2014 858.22 502858 188 1970000 -1467142 125 240 20 271 0 0.00 0 125
11/13/2014 858.24 502952 94 1970000 -1467048 287 345 11 383 0 0.57 0 287
11/14/2014 858.34 503422 470 1970000 -1466578 7 249 5 170 0 0.08 0 7
11/15/2014 858.48 504080 658 1970000 -1465920 9 353 12 228 0 0.00 0 9
11/16/2014 858.61 504690 610 1970000 -1465310 9 331 14 197 0 0.00 0 9
11/17/2014 858.50 504174 -516 1970000 -1465826 278 23 5 -123 0 0.00 0 278
11/18/2014 858.49 504127 -47 1970000 -1465873 365 346 5 198 0 0.00 0 365
11/19/2014 858.58 504549 422 1970000 -1465451 109 354 32 216 0 0.00 0 109
11/20/2014 858.74 505301 752 1970000 -1464699 118 503 6 363 0 0.02 0 118
11/21/2014 858.84 505770 469 -- -- 91 335 8 136 0 0.02 0 91
11/22/2014 859.13 507136 1366 -- -- 44 744 11 477 0 0.05 0 44
11/23/2014 -- -- -- -- -- -- -- -- -- -- -- -- --
11/24/2014 -- -- -- -- -- -- -- -- -- -- -- -- --

Later | Latest

Warning! This data is preliminary and subject to revision.

Show NML Map | Plot NML Data | 1 Month NML Data | Real-Time NML Data | NML Info